createdAt,value
2017-06-09T00:00:12.156Z,21.59
2017-06-09T00:00:25.579Z,21.62
2017-06-09T00:00:38.533Z,21.61
2017-06-09T00:00:51.478Z,21.56
2017-06-09T00:01:04.959Z,21.56
2017-06-09T00:01:18.407Z,21.64
2017-06-09T00:01:31.871Z,21.67
2017-06-09T00:01:44.279Z,21.61
2017-06-09T00:01:57.760Z,21.59
2017-06-09T00:02:10.706Z,21.58
2017-06-09T00:02:24.165Z,21.56
2017-06-09T00:02:37.669Z,21.49
2017-06-09T00:02:51.111Z,21.45
2017-06-09T00:03:04.062Z,21.52
2017-06-09T00:03:16.999Z,21.51
2017-06-09T00:03:30.417Z,21.46
2017-06-09T00:03:43.947Z,21.49
2017-06-09T00:03:57.387Z,21.45
2017-06-09T00:04:10.831Z,21.46
2017-06-09T00:04:24.241Z,21.43
2017-06-09T00:04:37.761Z,21.34
2017-06-09T00:04:51.263Z,21.48
2017-06-09T00:05:04.748Z,21.34
2017-06-09T00:05:17.173Z,21.41
2017-06-09T00:05:29.676Z,21.38
2017-06-09T00:05:43.136Z,21.33
2017-06-09T00:05:56.046Z,21.37
2017-06-09T00:06:09.032Z,21.38
2017-06-09T00:06:22.014Z,21.37
2017-06-09T00:06:35.495Z,21.37
2017-06-09T00:06:48.958Z,21.34
2017-06-09T00:07:02.461Z,21.43
2017-06-09T00:07:15.400Z,21.37
2017-06-09T00:07:28.322Z,21.46
2017-06-09T00:07:41.774Z,21.36
2017-06-09T00:07:54.137Z,21.37
2017-06-09T00:08:07.837Z,21.4
2017-06-09T00:08:21.379Z,21.37
2017-06-09T00:08:34.344Z,21.38
2017-06-09T00:08:47.816Z,21.37
2017-06-09T00:09:01.237Z,21.33
2017-06-09T00:09:14.213Z,21.34
2017-06-09T00:09:26.619Z,21.34
2017-06-09T00:09:39.553Z,21.38
2017-06-09T00:09:52.564Z,21.31
2017-06-09T00:10:06.138Z,21.31
2017-06-09T00:10:19.619Z,21.3
2017-06-09T00:10:33.171Z,21.21
2017-06-09T00:10:46.623Z,21.36
2017-06-09T00:11:00.142Z,21.3
2017-06-09T00:11:12.629Z,21.3
2017-06-09T00:11:26.117Z,21.33
2017-06-09T00:11:39.908Z,21.28
2017-06-09T00:11:53.349Z,21.36
2017-06-09T00:12:06.343Z,21.33
2017-06-09T00:12:18.314Z,21.28
2017-06-09T00:12:31.872Z,21.25
2017-06-09T00:12:46.123Z,21.25
2017-06-09T00:13:01.921Z,21.23
2017-06-09T00:13:14.332Z,21.27
2017-06-09T00:13:27.875Z,21.22
2017-06-09T00:13:40.792Z,21.25
2017-06-09T00:13:53.689Z,21.25
2017-06-09T00:14:07.135Z,21.23
2017-06-09T00:14:21.159Z,21.22
2017-06-09T00:14:35.232Z,21.28
2017-06-09T00:14:48.322Z,21.22
2017-06-09T00:15:01.761Z,21.28
2017-06-09T00:15:15.199Z,21.3
2017-06-09T00:15:28.660Z,21.31
2017-06-09T00:15:42.200Z,21.25
2017-06-09T00:15:55.694Z,21.23
2017-06-09T00:16:08.700Z,21.31
2017-06-09T00:16:22.214Z,21.23
2017-06-09T00:16:35.823Z,21.23
2017-06-09T00:16:48.716Z,21.23
2017-06-09T00:17:02.194Z,21.27
2017-06-09T00:17:15.670Z,21.22
2017-06-09T00:17:28.612Z,21.25
2017-06-09T00:17:42.088Z,21.23
2017-06-09T00:17:55.613Z,21.28
2017-06-09T00:18:08.613Z,21.3
2017-06-09T00:18:22.109Z,21.28
2017-06-09T00:18:35.158Z,21.27
2017-06-09T00:18:49.471Z,21.3
2017-06-09T00:19:02.482Z,21.27
2017-06-09T00:19:15.511Z,21.25
2017-06-09T00:19:29.050Z,21.33
2017-06-09T00:19:42.504Z,21.38
2017-06-09T00:19:56.050Z,21.33
2017-06-09T00:20:09.043Z,21.31
2017-06-09T00:20:21.502Z,21.38
2017-06-09T00:20:35.045Z,21.31
2017-06-09T00:20:48.049Z,21.31
2017-06-09T00:21:01.025Z,21.38
2017-06-09T00:21:14.571Z,21.21
2017-06-09T00:21:27.587Z,21.37
2017-06-09T00:21:41.094Z,21.41
2017-06-09T00:21:54.855Z,21.31
2017-06-09T00:22:08.483Z,21.34
2017-06-09T00:22:22.413Z,21.28
2017-06-09T00:22:35.889Z,21.34
2017-06-09T00:22:48.861Z,21.31
2017-06-09T00:23:01.800Z,21.37
2017-06-09T00:23:15.780Z,21.33
2017-06-09T00:23:29.030Z,21.37
2017-06-09T00:23:42.783Z,21.27
2017-06-09T00:23:56.385Z,21.38
2017-06-09T00:24:09.911Z,21.33
2017-06-09T00:24:23.418Z,21.37
2017-06-09T00:24:36.911Z,21.34
2017-06-09T00:24:50.300Z,21.25
2017-06-09T00:25:03.781Z,21.33
2017-06-09T00:25:16.783Z,21.38
2017-06-09T00:25:29.721Z,21.31
2017-06-09T00:25:43.296Z,21.37
2017-06-09T00:25:56.831Z,21.34
2017-06-09T00:26:09.785Z,21.41
2017-06-09T00:26:23.289Z,21.4
2017-06-09T00:26:36.226Z,21.31
2017-06-09T00:26:49.773Z,21.34
2017-06-09T00:27:02.198Z,21.41
2017-06-09T00:27:15.746Z,21.34
2017-06-09T00:27:29.291Z,21.34
2017-06-09T00:27:42.803Z,21.4
2017-06-09T00:27:55.947Z,21.38
2017-06-09T00:28:09.132Z,21.37
2017-06-09T00:28:24.625Z,21.4
2017-06-09T00:28:37.566Z,21.41
2017-06-09T00:28:51.148Z,21.38
2017-06-09T00:29:07.199Z,21.36
2017-06-09T00:29:21.509Z,21.4
2017-06-09T00:29:33.704Z,21.36
2017-06-09T00:29:47.190Z,21.43
2017-06-09T00:30:00.150Z,21.36
2017-06-09T00:30:13.209Z,21.38
2017-06-09T00:30:26.443Z,21.41
2017-06-09T00:30:40.070Z,21.37
2017-06-09T00:30:53.497Z,21.4
2017-06-09T00:31:06.407Z,21.37
2017-06-09T00:31:21.171Z,21.37
2017-06-09T00:31:44.977Z,21.37
2017-06-09T00:31:58.508Z,21.38
2017-06-09T00:32:12.866Z,21.4
2017-06-09T00:32:26.561Z,21.36
2017-06-09T00:32:40.069Z,21.34
2017-06-09T00:32:54.116Z,21.38
2017-06-09T00:33:07.680Z,21.37
2017-06-09T00:33:21.204Z,21.37
2017-06-09T00:33:34.146Z,21.4
2017-06-09T00:33:47.140Z,21.37
2017-06-09T00:34:01.477Z,21.45
2017-06-09T00:34:14.673Z,21.45
2017-06-09T00:34:32.048Z,21.34
2017-06-09T00:35:25.257Z,21.4
2017-06-09T00:36:02.152Z,21.52
2017-06-09T00:37:05.301Z,21.48
2017-06-09T00:37:23.134Z,21.46
2017-06-09T00:37:36.684Z,21.48
2017-06-09T00:37:49.641Z,21.45
2017-06-09T00:38:03.066Z,21.55
2017-06-09T00:38:16.369Z,21.55
2017-06-09T00:38:30.359Z,21.56
2017-06-09T00:38:43.363Z,21.58
2017-06-09T00:38:56.341Z,21.58
2017-06-09T00:39:09.286Z,21.52
2017-06-09T00:39:22.317Z,21.61
2017-06-09T00:39:48.533Z,21.66
2017-06-09T00:40:02.232Z,21.55
2017-06-09T00:40:18.784Z,21.64
2017-06-09T00:40:32.307Z,21.66
2017-06-09T00:40:46.092Z,21.68
2017-06-09T00:40:59.600Z,21.66
2017-06-09T00:41:12.784Z,21.66
2017-06-09T00:41:25.788Z,21.71
2017-06-09T00:41:39.487Z,21.71
2017-06-09T00:41:52.377Z,21.67
2017-06-09T00:42:05.922Z,21.71
2017-06-09T00:42:19.425Z,21.76
2017-06-09T00:42:32.960Z,21.73
2017-06-09T00:42:46.708Z,21.77
2017-06-09T00:43:00.216Z,21.77
2017-06-09T00:43:13.214Z,21.71
2017-06-09T00:43:27.992Z,21.74
2017-06-09T00:43:40.935Z,21.71
2017-06-09T00:43:53.875Z,21.76
2017-06-09T00:44:07.408Z,21.73
2017-06-09T00:44:19.805Z,21.74
2017-06-09T00:44:32.827Z,21.76
2017-06-09T00:44:46.355Z,21.73
2017-06-09T00:44:59.861Z,21.73
2017-06-09T00:45:13.284Z,21.74
2017-06-09T00:45:26.781Z,21.76
2017-06-09T00:45:39.758Z,21.77
2017-06-09T00:45:52.714Z,21.74
2017-06-09T00:46:05.695Z,21.71
2017-06-09T00:46:18.620Z,21.7
2017-06-09T00:46:31.595Z,21.7
2017-06-09T00:46:45.102Z,21.73
2017-06-09T00:46:58.592Z,21.68
2017-06-09T00:47:12.088Z,21.67
2017-06-09T00:47:25.504Z,21.67
2017-06-09T00:47:38.972Z,21.67
2017-06-09T00:47:52.466Z,21.68
2017-06-09T00:48:05.894Z,21.67
2017-06-09T00:48:19.366Z,21.68
2017-06-09T00:48:32.875Z,21.73
2017-06-09T00:48:45.933Z,21.71
2017-06-09T00:49:04.663Z,21.73
2017-06-09T00:49:17.130Z,21.67
2017-06-09T00:49:29.883Z,21.71
2017-06-09T00:49:43.645Z,21.66
2017-06-09T00:49:56.596Z,21.7
2017-06-09T00:50:09.616Z,21.77
2017-06-09T00:50:23.213Z,21.71
2017-06-09T00:50:37.910Z,21.7
2017-06-09T00:50:54.606Z,21.73
2017-06-09T00:51:07.630Z,21.77
2017-06-09T00:51:20.542Z,21.77
2017-06-09T00:51:40.962Z,21.71
2017-06-09T00:51:53.938Z,21.76
2017-06-09T00:52:08.250Z,21.74
2017-06-09T00:52:21.315Z,21.73
2017-06-09T00:52:35.410Z,21.76
2017-06-09T00:52:48.871Z,21.67
2017-06-09T00:53:02.355Z,21.71
2017-06-09T00:53:15.908Z,21.73
2017-06-09T00:53:28.882Z,21.71
2017-06-09T00:53:42.375Z,21.7
2017-06-09T00:53:55.320Z,21.73
2017-06-09T00:54:08.841Z,21.66
2017-06-09T00:54:21.924Z,21.71
2017-06-09T00:54:34.938Z,21.64
2017-06-09T00:54:48.443Z,21.7
2017-06-09T00:55:01.413Z,21.7
2017-06-09T00:55:14.354Z,21.67
2017-06-09T00:55:27.884Z,21.66
2017-06-09T00:55:41.291Z,21.66
2017-06-09T00:55:54.727Z,21.61
2017-06-09T00:56:08.249Z,21.61
2017-06-09T00:56:20.181Z,21.66
2017-06-09T00:56:33.150Z,21.61
2017-06-09T00:56:46.546Z,21.64
2017-06-09T00:57:00.008Z,21.62
2017-06-09T00:57:13.488Z,21.58
2017-06-09T00:57:26.997Z,21.58
2017-06-09T00:57:40.435Z,21.51
2017-06-09T00:57:53.907Z,21.56
2017-06-09T00:58:07.320Z,21.55
2017-06-09T00:58:20.308Z,21.56
2017-06-09T00:58:33.322Z,21.51
2017-06-09T00:58:46.830Z,21.52
2017-06-09T00:59:00.314Z,21.41
2017-06-09T00:59:13.841Z,21.46
2017-06-09T00:59:27.325Z,21.46
2017-06-09T00:59:40.807Z,21.37
2017-06-09T00:59:54.315Z,21.43
2017-06-09T01:00:07.830Z,21.48
2017-06-09T01:00:20.771Z,21.38
2017-06-09T01:00:32.712Z,21.41
2017-06-09T01:00:46.198Z,21.37
2017-06-09T01:00:59.264Z,21.41
2017-06-09T01:01:12.819Z,21.36
2017-06-09T01:01:25.810Z,21.41
2017-06-09T01:01:39.350Z,21.34
2017-06-09T01:01:52.823Z,21.34
2017-06-09T01:02:06.360Z,21.37
2017-06-09T01:02:19.836Z,21.37
2017-06-09T01:02:32.757Z,21.3
2017-06-09T01:02:45.675Z,21.25
2017-06-09T01:02:59.128Z,21.36
2017-06-09T01:03:12.650Z,21.33
2017-06-09T01:03:25.679Z,21.25
2017-06-09T01:03:39.155Z,21.41
2017-06-09T01:03:52.181Z,21.28
2017-06-09T01:04:05.104Z,21.27
2017-06-09T01:04:17.572Z,21.38
2017-06-09T01:04:30.551Z,21.38
2017-06-09T01:04:44.070Z,21.34
2017-06-09T01:04:57.632Z,21.23
2017-06-09T01:05:10.028Z,21.45
2017-06-09T01:05:22.992Z,21.28
2017-06-09T01:05:37.331Z,21.34
2017-06-09T01:06:02.202Z,21.36
2017-06-09T01:06:15.733Z,21.37
2017-06-09T01:06:29.272Z,21.36
2017-06-09T01:06:42.821Z,21.37
2017-06-09T01:06:56.304Z,21.34
2017-06-09T01:07:09.301Z,21.45
2017-06-09T01:07:22.865Z,21.41
2017-06-09T01:07:37.559Z,21.22
2017-06-09T01:07:55.323Z,21.25
2017-06-09T01:08:18.508Z,21.33
2017-06-09T01:08:38.412Z,21.23
2017-06-09T01:08:52.648Z,21.37
2017-06-09T01:09:10.137Z,21.31
2017-06-09T01:09:26.811Z,21.3
2017-06-09T01:09:44.725Z,21.33
2017-06-09T01:10:01.347Z,21.3
2017-06-09T01:11:20.220Z,21.3
2017-06-09T01:12:05.134Z,21.33
2017-06-09T01:12:18.685Z,21.34
2017-06-09T01:12:42.795Z,21.34
2017-06-09T01:13:06.917Z,21.3
2017-06-09T01:13:51.809Z,21.38
2017-06-09T01:14:18.116Z,21.25
2017-06-09T01:14:34.877Z,21.36
2017-06-09T01:15:19.492Z,21.28
2017-06-09T01:15:46.926Z,21.34
2017-06-09T01:16:22.711Z,21.36
2017-06-09T01:16:38.429Z,21.31
2017-06-09T01:16:51.928Z,21.38
2017-06-09T01:17:07.426Z,21.38
2017-06-09T01:17:19.869Z,21.4
2017-06-09T01:18:48.850Z,21.4
2017-06-09T01:34:23.707Z,21.53
2017-06-09T01:34:36.413Z,21.67
2017-06-09T01:35:21.260Z,21.55
2017-06-09T01:36:07.072Z,21.53
2017-06-09T01:36:31.073Z,21.58
2017-06-09T01:36:55.332Z,21.58
2017-06-09T01:37:52.731Z,21.52
2017-06-09T01:40:24.394Z,21.62
2017-06-09T01:40:37.875Z,21.56
2017-06-09T01:42:19.847Z,21.53
2017-06-09T01:44:20.803Z,21.46
2017-06-09T01:46:33.062Z,21.41
2017-06-09T01:47:05.274Z,21.46
2017-06-09T01:49:04.530Z,21.38
2017-06-09T01:49:49.122Z,21.41
2017-06-09T01:50:08.830Z,21.38
2017-06-09T01:50:54.550Z,21.25
2017-06-09T01:51:07.492Z,21.38
2017-06-09T01:51:52.882Z,21.3
2017-06-09T01:52:42.394Z,21.21
2017-06-09T01:53:15.837Z,21.23
2017-06-09T01:53:54.556Z,21.16
2017-06-09T01:54:45.482Z,21.18
2017-06-09T01:55:33.383Z,21.11
2017-06-09T01:56:43.936Z,21.16
2017-06-09T01:57:34.274Z,21.16
2017-06-09T01:58:11.056Z,21.11
2017-06-09T01:58:55.122Z,21.13
2017-06-09T01:59:49.110Z,21.01
2017-06-09T02:00:57.129Z,20.98
2017-06-09T02:01:09.993Z,21.04
2017-06-09T02:01:32.260Z,20.97
2017-06-09T02:01:48.831Z,20.94
2017-06-09T02:02:32.897Z,20.97
2017-06-09T02:02:56.507Z,20.97
2017-06-09T02:03:51.461Z,20.85
2017-06-09T02:04:36.304Z,20.81
2017-06-09T02:04:51.533Z,20.78
2017-06-09T02:06:15.860Z,20.64
2017-06-09T02:06:56.542Z,20.74
2017-06-09T02:07:09.635Z,20.71
2017-06-09T02:07:55.409Z,20.6
2017-06-09T02:08:08.840Z,20.66
2017-06-09T02:08:53.638Z,20.66
2017-06-09T02:09:15.335Z,20.57
2017-06-09T02:10:03.015Z,20.6
2017-06-09T02:10:17.294Z,20.68
2017-06-09T02:10:43.703Z,20.57
2017-06-09T02:11:54.795Z,20.63
2017-06-09T02:12:39.436Z,20.61
2017-06-09T02:12:52.389Z,20.6
2017-06-09T02:15:16.481Z,20.67
2017-06-09T02:15:39.694Z,20.64
2017-06-09T02:16:01.529Z,20.57
2017-06-09T02:16:36.016Z,20.61
2017-06-09T02:17:20.255Z,20.61
2017-06-09T02:18:11.262Z,20.61
2017-06-09T02:18:57.010Z,20.56
2017-06-09T02:19:53.322Z,20.63
2017-06-09T02:20:06.279Z,20.75
2017-06-09T02:20:47.415Z,20.81
2017-06-09T02:21:01.686Z,20.76
2017-06-09T02:21:16.356Z,20.81
2017-06-09T02:21:29.929Z,20.78
2017-06-09T02:22:25.812Z,20.72
2017-06-09T02:22:45.077Z,20.64
2017-06-09T02:23:28.033Z,20.71
2017-06-09T02:24:44.975Z,20.64
2017-06-09T02:25:36.833Z,20.67
2017-06-09T02:27:05.014Z,20.67
2017-06-09T02:28:28.080Z,20.72
2017-06-09T02:29:24.889Z,20.82
2017-06-09T02:30:52.841Z,20.88
2017-06-09T02:31:05.797Z,20.79
2017-06-09T02:32:01.240Z,20.9
2017-06-09T02:47:24.670Z,20.61
2017-06-09T02:47:57.365Z,20.64
2017-06-09T02:48:16.861Z,20.63
2017-06-09T02:49:11.956Z,20.6
2017-06-09T02:49:28.526Z,20.63
2017-06-09T02:50:20.152Z,20.66
2017-06-09T02:51:24.996Z,20.66
2017-06-09T02:51:40.646Z,20.64
2017-06-09T02:52:58.823Z,20.56
2017-06-09T02:53:17.663Z,20.51
2017-06-09T02:53:58.896Z,20.42
2017-06-09T02:54:12.315Z,20.54
2017-06-09T02:54:27.059Z,20.61
2017-06-09T02:54:43.644Z,20.44
2017-06-09T02:54:57.084Z,20.48
2017-06-09T02:55:24.467Z,20.49
2017-06-09T02:55:38.973Z,20.46
2017-06-09T02:56:28.583Z,20.44
2017-06-09T02:56:54.957Z,20.49
2017-06-09T02:57:39.815Z,20.51
2017-06-09T02:57:54.804Z,20.46
2017-06-09T02:58:08.292Z,20.48
2017-06-09T02:58:22.053Z,20.53
2017-06-09T02:58:35.850Z,20.48
2017-06-09T02:58:48.786Z,20.42
2017-06-09T02:59:02.285Z,20.44
2017-06-09T02:59:18.241Z,20.44
2017-06-09T02:59:32.535Z,20.42
2017-06-09T02:59:46.031Z,20.41
2017-06-09T02:59:59.559Z,20.42
2017-06-09T03:00:13.120Z,20.44
2017-06-09T03:00:38.988Z,20.53
2017-06-09T03:01:05.975Z,20.56
2017-06-09T03:01:18.375Z,20.49
2017-06-09T03:01:32.531Z,20.51
2017-06-09T03:01:46.674Z,20.46
2017-06-09T03:01:59.678Z,20.46
2017-06-09T03:02:12.086Z,20.46
2017-06-09T03:02:25.047Z,20.49
2017-06-09T03:02:38.675Z,20.56
2017-06-09T03:02:53.409Z,20.53
2017-06-09T03:03:07.156Z,20.54
2017-06-09T03:03:21.219Z,20.48
2017-06-09T03:03:35.020Z,20.51
2017-06-09T03:03:48.518Z,20.46
2017-06-09T03:04:01.530Z,20.46
2017-06-09T03:04:15.046Z,20.42
2017-06-09T03:04:28.019Z,20.42
2017-06-09T03:04:42.393Z,20.44
2017-06-09T03:04:55.850Z,20.44
2017-06-09T03:05:09.671Z,20.42
2017-06-09T03:05:22.635Z,20.42
2017-06-09T03:05:36.194Z,20.38
2017-06-09T03:06:03.257Z,20.44
2017-06-09T03:06:16.288Z,20.44
2017-06-09T03:06:29.544Z,20.4
2017-06-09T03:06:43.157Z,20.44
2017-06-09T03:06:56.168Z,20.38
2017-06-09T03:07:09.621Z,20.42
2017-06-09T03:07:23.787Z,20.41
2017-06-09T03:07:37.227Z,20.42
2017-06-09T03:07:50.715Z,20.4
2017-06-09T03:08:04.174Z,20.4
2017-06-09T03:08:17.219Z,20.44
2017-06-09T03:08:30.230Z,20.4
2017-06-09T03:08:43.688Z,20.41
2017-06-09T03:08:57.191Z,20.4
2017-06-09T03:09:10.658Z,20.4
2017-06-09T03:09:24.146Z,20.42
2017-06-09T03:09:37.643Z,20.4
2017-06-09T03:09:50.547Z,20.38
2017-06-09T03:10:03.009Z,20.38
2017-06-09T03:10:15.969Z,20.46
2017-06-09T03:10:29.022Z,20.41
2017-06-09T03:10:42.482Z,20.46
2017-06-09T03:10:55.453Z,20.41
2017-06-09T03:11:08.961Z,20.38
2017-06-09T03:11:22.457Z,20.4
2017-06-09T03:11:38.938Z,20.4
2017-06-09T03:12:13.110Z,20.46
2017-06-09T03:12:26.288Z,20.4
2017-06-09T03:12:39.801Z,20.41
2017-06-09T03:12:53.320Z,20.44
2017-06-09T03:13:06.294Z,20.4
2017-06-09T03:13:22.558Z,20.44
2017-06-09T03:13:34.668Z,20.44
2017-06-09T03:13:47.594Z,20.44
2017-06-09T03:14:02.329Z,20.44
2017-06-09T03:14:16.060Z,20.4
2017-06-09T03:14:29.028Z,20.37
2017-06-09T03:14:42.506Z,20.4
2017-06-09T03:14:55.456Z,20.38
2017-06-09T03:15:07.943Z,20.38
2017-06-09T03:15:20.884Z,20.37
2017-06-09T03:15:34.431Z,20.4
2017-06-09T03:15:47.867Z,20.3
2017-06-09T03:16:01.360Z,20.34
2017-06-09T03:16:14.827Z,20.26
2017-06-09T03:16:28.381Z,20.3
2017-06-09T03:16:41.292Z,20.29
2017-06-09T03:16:54.818Z,20.29
2017-06-09T03:17:08.302Z,20.27
2017-06-09T03:17:21.854Z,20.3
2017-06-09T03:17:34.759Z,20.3
2017-06-09T03:17:47.908Z,20.25
2017-06-09T03:18:01.378Z,20.25
2017-06-09T03:18:13.782Z,20.27
2017-06-09T03:18:27.228Z,20.27
2017-06-09T03:18:40.244Z,20.3
2017-06-09T03:18:53.197Z,20.34
2017-06-09T03:19:06.185Z,20.3
2017-06-09T03:19:19.666Z,20.3
2017-06-09T03:19:33.193Z,20.32
2017-06-09T03:19:46.648Z,20.26
2017-06-09T03:19:59.610Z,20.29
2017-06-09T03:20:11.995Z,20.26
2017-06-09T03:20:24.975Z,20.23
2017-06-09T03:20:38.426Z,20.26
2017-06-09T03:20:50.840Z,20.27
2017-06-09T03:21:03.782Z,20.3
2017-06-09T03:21:17.277Z,20.27
2017-06-09T03:21:30.718Z,20.23
2017-06-09T03:21:44.284Z,20.2
2017-06-09T03:21:57.267Z,20.23
2017-06-09T03:22:10.267Z,20.2
2017-06-09T03:22:23.280Z,20.2
2017-06-09T03:22:36.181Z,20.25
2017-06-09T03:22:49.659Z,20.3
2017-06-09T03:23:03.119Z,20.27
2017-06-09T03:23:16.102Z,20.34
2017-06-09T03:23:29.068Z,20.29
2017-06-09T03:23:42.521Z,20.35
2017-06-09T03:23:56.009Z,20.41
2017-06-09T03:24:09.457Z,20.4
2017-06-09T03:24:22.954Z,20.4
2017-06-09T03:24:35.924Z,20.41
2017-06-09T03:24:49.384Z,20.44
2017-06-09T03:25:02.794Z,20.41
2017-06-09T03:25:16.268Z,20.4
2017-06-09T03:25:29.182Z,20.4
2017-06-09T03:25:42.609Z,20.42
2017-06-09T03:25:56.102Z,20.41
2017-06-09T03:26:09.544Z,20.42
2017-06-09T03:26:23.083Z,20.42
2017-06-09T03:26:36.608Z,20.37
2017-06-09T03:26:50.070Z,20.4
2017-06-09T03:27:03.541Z,20.42
2017-06-09T03:27:16.965Z,20.41
2017-06-09T03:27:30.523Z,20.41
2017-06-09T03:27:43.997Z,20.4
2017-06-09T03:27:57.512Z,20.48
2017-06-09T03:28:10.444Z,20.46
2017-06-09T03:28:22.883Z,20.41
2017-06-09T03:28:35.783Z,20.44
2017-06-09T03:28:49.231Z,20.4
2017-06-09T03:29:02.197Z,20.42
2017-06-09T03:29:15.626Z,20.4
2017-06-09T03:29:29.055Z,20.37
2017-06-09T03:29:42.513Z,20.4
2017-06-09T03:29:55.421Z,20.34
2017-06-09T03:30:08.443Z,20.37
2017-06-09T03:30:21.352Z,20.32
2017-06-09T03:30:34.313Z,20.34
2017-06-09T03:30:47.857Z,20.37
2017-06-09T03:31:01.278Z,20.29
2017-06-09T03:31:14.807Z,20.29
2017-06-09T03:31:28.294Z,20.3
2017-06-09T03:31:41.240Z,20.22
2017-06-09T03:31:53.611Z,20.32
2017-06-09T03:32:07.030Z,20.25
2017-06-09T03:32:20.468Z,20.26
2017-06-09T03:32:33.889Z,20.27
2017-06-09T03:32:47.449Z,20.35
2017-06-09T03:33:00.945Z,20.34
2017-06-09T03:33:14.421Z,20.34
2017-06-09T03:33:27.892Z,20.34
2017-06-09T03:33:41.376Z,20.37
2017-06-09T03:33:54.841Z,20.3
2017-06-09T03:34:08.379Z,20.41
2017-06-09T03:34:21.831Z,20.35
2017-06-09T03:34:33.730Z,20.34
2017-06-09T03:34:46.663Z,20.3
2017-06-09T03:35:00.132Z,20.38
2017-06-09T03:35:13.057Z,20.35
2017-06-09T03:35:26.515Z,20.42
2017-06-09T03:35:39.990Z,20.41
2017-06-09T03:35:53.449Z,20.38
2017-06-09T03:36:06.388Z,20.46
2017-06-09T03:36:19.283Z,20.44
2017-06-09T03:36:32.688Z,20.49
2017-06-09T03:36:46.188Z,20.48
2017-06-09T03:36:59.649Z,20.42
2017-06-09T03:37:13.127Z,20.49
2017-06-09T03:37:26.109Z,20.44
2017-06-09T03:37:40.417Z,20.49
2017-06-09T03:37:53.924Z,20.56
2017-06-09T03:38:07.418Z,20.58
2017-06-09T03:38:19.840Z,20.49
2017-06-09T03:38:33.283Z,20.53
2017-06-09T03:38:46.800Z,20.53
2017-06-09T03:39:00.266Z,20.46
2017-06-09T03:39:13.690Z,20.48
2017-06-09T03:39:26.104Z,20.44
2017-06-09T03:39:39.537Z,20.48
2017-06-09T03:39:53.008Z,20.49
2017-06-09T03:40:06.489Z,20.44
2017-06-09T03:40:18.977Z,20.42
2017-06-09T03:40:32.470Z,20.44
2017-06-09T03:40:45.414Z,20.44
2017-06-09T03:40:58.332Z,20.44
2017-06-09T03:41:11.773Z,20.42
2017-06-09T03:41:24.673Z,20.41
2017-06-09T03:41:37.560Z,20.4
2017-06-09T03:41:50.480Z,20.38
2017-06-09T03:42:03.924Z,20.38
2017-06-09T03:42:17.408Z,20.46
2017-06-09T03:42:30.878Z,20.4
2017-06-09T03:42:44.314Z,20.44
2017-06-09T03:42:57.736Z,20.42
2017-06-09T03:43:11.203Z,20.37
2017-06-09T03:43:24.646Z,20.37
2017-06-09T03:43:38.079Z,20.37
2017-06-09T03:43:51.545Z,20.37
2017-06-09T03:44:04.423Z,20.41
2017-06-09T03:44:17.914Z,20.34
2017-06-09T03:44:31.417Z,20.42
2017-06-09T03:44:44.895Z,20.34
2017-06-09T03:44:57.818Z,20.41
2017-06-09T03:45:10.753Z,20.4
2017-06-09T03:45:24.188Z,20.41
2017-06-09T03:45:37.675Z,20.42
2017-06-09T03:45:50.645Z,20.46
2017-06-09T03:46:04.133Z,20.38
2017-06-09T03:46:17.646Z,20.4
2017-06-09T03:46:31.149Z,20.42
2017-06-09T03:46:44.171Z,20.42
2017-06-09T03:46:57.073Z,20.42
2017-06-09T03:47:10.593Z,20.42
2017-06-09T03:47:24.137Z,20.42
2017-06-09T03:47:37.604Z,20.41
2017-06-09T03:47:51.057Z,20.41
2017-06-09T03:48:04.694Z,20.42
2017-06-09T03:48:17.616Z,20.48
2017-06-09T03:48:31.058Z,20.4
2017-06-09T03:48:44.473Z,20.48
2017-06-09T03:48:57.991Z,20.44
2017-06-09T03:49:11.454Z,20.48
2017-06-09T03:49:24.903Z,20.44
2017-06-09T03:49:38.329Z,20.41
2017-06-09T03:49:51.805Z,20.48
2017-06-09T03:50:04.796Z,20.44
2017-06-09T03:50:17.773Z,20.49
2017-06-09T03:50:30.693Z,20.48
2017-06-09T03:50:44.137Z,20.44
2017-06-09T03:50:57.582Z,20.42
2017-06-09T03:51:10.947Z,20.38
2017-06-09T03:51:24.380Z,20.4
2017-06-09T03:51:37.880Z,20.42
2017-06-09T03:51:51.371Z,20.46
2017-06-09T03:52:04.868Z,20.38
2017-06-09T03:52:18.300Z,20.42
2017-06-09T03:52:31.275Z,20.44
2017-06-09T03:52:44.747Z,20.44
2017-06-09T03:52:58.190Z,20.49
2017-06-09T03:53:11.637Z,20.4
2017-06-09T03:53:24.061Z,20.46
2017-06-09T03:53:37.046Z,20.48
2017-06-09T03:53:50.039Z,20.44
2017-06-09T03:54:03.515Z,20.48
2017-06-09T03:54:16.975Z,20.4
2017-06-09T03:54:30.448Z,20.48
2017-06-09T03:54:43.928Z,20.46
2017-06-09T03:54:57.403Z,20.44
2017-06-09T03:55:10.327Z,20.42
2017-06-09T03:55:23.291Z,20.44
2017-06-09T03:55:36.778Z,20.42
2017-06-09T03:55:50.278Z,20.41
2017-06-09T03:56:03.690Z,20.41
2017-06-09T03:56:17.203Z,20.48
2017-06-09T03:56:30.628Z,20.41
2017-06-09T03:56:44.071Z,20.38
2017-06-09T03:56:57.546Z,20.4
2017-06-09T03:57:10.508Z,20.42
2017-06-09T03:57:23.471Z,20.41
2017-06-09T03:57:36.973Z,20.4
2017-06-09T03:57:50.457Z,20.41
2017-06-09T03:58:03.859Z,20.4
2017-06-09T03:58:16.298Z,20.51
2017-06-09T03:58:29.773Z,20.48
2017-06-09T03:58:43.210Z,20.49
2017-06-09T03:58:56.722Z,20.4
2017-06-09T03:59:09.710Z,20.48
2017-06-09T03:59:23.108Z,20.44
2017-06-09T03:59:36.531Z,20.44
2017-06-09T03:59:49.979Z,20.48
2017-06-09T04:00:03.403Z,20.42
2017-06-09T04:00:16.370Z,20.49
2017-06-09T04:00:29.342Z,20.46
2017-06-09T04:00:42.791Z,20.46
2017-06-09T04:00:55.180Z,20.4
2017-06-09T04:01:08.695Z,20.48
2017-06-09T04:01:22.134Z,20.42
2017-06-09T04:01:35.658Z,20.4
2017-06-09T04:01:49.116Z,20.37
2017-06-09T04:02:02.580Z,20.41
2017-06-09T04:02:15.540Z,20.38
2017-06-09T04:02:28.524Z,20.38
2017-06-09T04:02:41.915Z,20.42
2017-06-09T04:02:54.305Z,20.48
2017-06-09T04:03:07.888Z,20.4
2017-06-09T04:03:21.411Z,20.4
2017-06-09T04:03:34.855Z,20.35
2017-06-09T04:03:48.299Z,20.3
2017-06-09T04:04:01.779Z,20.34
2017-06-09T04:04:15.194Z,20.35
2017-06-09T04:04:28.607Z,20.37
2017-06-09T04:04:42.072Z,20.35
2017-06-09T04:04:55.539Z,20.34
2017-06-09T04:05:08.519Z,20.38
2017-06-09T04:05:21.980Z,20.37
2017-06-09T04:05:34.920Z,20.32
2017-06-09T04:05:48.382Z,20.34
2017-06-09T04:06:01.288Z,20.35
2017-06-09T04:06:14.258Z,20.35
2017-06-09T04:06:27.737Z,20.32
2017-06-09T04:06:40.657Z,20.35
2017-06-09T04:06:54.336Z,20.41
2017-06-09T04:07:07.827Z,20.3
2017-06-09T04:07:20.264Z,20.35
2017-06-09T04:07:33.684Z,20.3
2017-06-09T04:07:46.637Z,20.41
2017-06-09T04:07:59.095Z,20.37
2017-06-09T04:08:12.609Z,20.4
2017-06-09T04:08:26.109Z,20.4
2017-06-09T04:08:39.530Z,20.48
2017-06-09T04:08:53.001Z,20.4
2017-06-09T04:09:06.508Z,20.4
2017-06-09T04:09:19.949Z,20.4
2017-06-09T04:09:33.399Z,20.42
2017-06-09T04:09:46.821Z,20.38
2017-06-09T04:10:00.293Z,20.4
2017-06-09T04:10:13.234Z,20.41
2017-06-09T04:10:26.169Z,20.42
2017-06-09T04:10:39.549Z,20.4
2017-06-09T04:10:52.997Z,20.46
2017-06-09T04:11:06.381Z,20.41
2017-06-09T04:11:18.779Z,20.4
2017-06-09T04:11:32.296Z,20.37
2017-06-09T04:11:45.753Z,20.38
2017-06-09T04:11:59.221Z,20.42
2017-06-09T04:12:12.125Z,20.37
2017-06-09T04:12:25.096Z,20.41
2017-06-09T04:12:38.586Z,20.42
2017-06-09T04:12:51.596Z,20.38
2017-06-09T04:13:05.095Z,20.46
2017-06-09T04:13:18.528Z,20.44
2017-06-09T04:13:32.022Z,20.44
2017-06-09T04:13:44.975Z,20.42
2017-06-09T04:13:57.934Z,20.4
2017-06-09T04:14:10.838Z,20.48
2017-06-09T04:14:23.763Z,20.46
2017-06-09T04:14:37.203Z,20.44
2017-06-09T04:14:50.660Z,20.44
2017-06-09T04:15:04.149Z,20.44
2017-06-09T04:15:17.621Z,20.48
2017-06-09T04:15:30.555Z,20.56
2017-06-09T04:15:43.962Z,20.41
2017-06-09T04:15:57.375Z,20.46
2017-06-09T04:16:09.802Z,20.57
2017-06-09T04:16:23.337Z,20.48
2017-06-09T04:16:36.323Z,20.49
2017-06-09T04:16:49.744Z,20.49
2017-06-09T04:17:03.235Z,20.48
2017-06-09T04:17:16.670Z,20.48
2017-06-09T04:17:30.138Z,20.53
2017-06-09T04:17:43.570Z,20.53
2017-06-09T04:17:57.071Z,20.51
2017-06-09T04:18:10.634Z,20.53
2017-06-09T04:18:23.533Z,20.51
2017-06-09T04:18:36.466Z,20.48
2017-06-09T04:18:49.434Z,20.44
2017-06-09T04:19:02.891Z,20.44
2017-06-09T04:19:16.406Z,20.44
2017-06-09T04:19:29.848Z,20.41
2017-06-09T04:19:42.767Z,20.49
2017-06-09T04:19:56.215Z,20.44